sensor_id;sensor_type;location;lat;lon;timestamp;temperature;humidity
23377;DHT22;14353;46.070;13.222;2024-02-04T00:01:19;20.70;35.80
23377;DHT22;14353;46.070;13.222;2024-02-04T00:03:45;20.70;35.80
23377;DHT22;14353;46.070;13.222;2024-02-04T00:06:11;20.70;35.70
23377;DHT22;14353;46.070;13.222;2024-02-04T00:08:36;20.70;36.40
23377;DHT22;14353;46.070;13.222;2024-02-04T00:11:02;20.70;35.80
23377;DHT22;14353;46.070;13.222;2024-02-04T00:13:30;20.70;35.80
23377;DHT22;14353;46.070;13.222;2024-02-04T00:15:56;20.70;35.80
23377;DHT22;14353;46.070;13.222;2024-02-04T00:18:24;20.70;35.80
23377;DHT22;14353;46.070;13.222;2024-02-04T00:20:50;20.70;35.80
23377;DHT22;14353;46.070;13.222;2024-02-04T00:23:15;20.70;35.80
23377;DHT22;14353;46.070;13.222;2024-02-04T00:25:41;20.70;35.80
23377;DHT22;14353;46.070;13.222;2024-02-04T00:28:07;20.60;35.70
23377;DHT22;14353;46.070;13.222;2024-02-04T00:30:37;20.60;35.70
23377;DHT22;14353;46.070;13.222;2024-02-04T00:33:03;20.70;35.80
23377;DHT22;14353;46.070;13.222;2024-02-04T00:35:29;20.60;35.70
23377;DHT22;14353;46.070;13.222;2024-02-04T00:37:55;20.60;35.70
23377;DHT22;14353;46.070;13.222;2024-02-04T00:40:21;20.60;35.70
23377;DHT22;14353;46.070;13.222;2024-02-04T00:42:46;20.60;35.70
23377;DHT22;14353;46.070;13.222;2024-02-04T00:45:12;20.60;35.80
23377;DHT22;14353;46.070;13.222;2024-02-04T00:47:38;20.60;35.80
23377;DHT22;14353;46.070;13.222;2024-02-04T00:50:04;20.60;35.80
23377;DHT22;14353;46.070;13.222;2024-02-04T00:52:30;20.60;35.70
23377;DHT22;14353;46.070;13.222;2024-02-04T00:54:55;20.60;35.70
23377;DHT22;14353;46.070;13.222;2024-02-04T00:57:21;20.60;35.80
23377;DHT22;14353;46.070;13.222;2024-02-04T00:59:47;20.60;35.80
23377;DHT22;14353;46.070;13.222;2024-02-04T01:02:12;20.60;35.80
23377;DHT22;14353;46.070;13.222;2024-02-04T01:04:39;20.60;36.00
23377;DHT22;14353;46.070;13.222;2024-02-04T01:07:04;20.60;35.80
23377;DHT22;14353;46.070;13.222;2024-02-04T01:09:30;20.60;35.80
23377;DHT22;14353;46.070;13.222;2024-02-04T01:11:56;20.60;35.90
23377;DHT22;14353;46.070;13.222;2024-02-04T01:14:22;20.50;35.80
23377;DHT22;14353;46.070;13.222;2024-02-04T01:16:47;20.50;35.80
23377;DHT22;14353;46.070;13.222;2024-02-04T01:19:13;20.50;35.80
23377;DHT22;14353;46.070;13.222;2024-02-04T01:21:39;20.50;35.80
23377;DHT22;14353;46.070;13.222;2024-02-04T01:24:05;20.50;35.80
23377;DHT22;14353;46.070;13.222;2024-02-04T01:26:30;20.50;35.80
23377;DHT22;14353;46.070;13.222;2024-02-04T01:28:56;20.50;35.80
23377;DHT22;14353;46.070;13.222;2024-02-04T01:31:22;20.60;35.90
23377;DHT22;14353;46.070;13.222;2024-02-04T01:33:47;20.50;35.80
23377;DHT22;14353;46.070;13.222;2024-02-04T01:36:13;20.50;35.80
23377;DHT22;14353;46.070;13.222;2024-02-04T01:38:39;20.50;35.80
23377;DHT22;14353;46.070;13.222;2024-02-04T01:41:04;20.50;35.80
23377;DHT22;14353;46.070;13.222;2024-02-04T01:43:30;20.50;35.80
23377;DHT22;14353;46.070;13.222;2024-02-04T01:45:56;20.50;35.80
23377;DHT22;14353;46.070;13.222;2024-02-04T01:48:22;20.50;35.90
23377;DHT22;14353;46.070;13.222;2024-02-04T01:50:49;20.50;35.90
23377;DHT22;14353;46.070;13.222;2024-02-04T01:53:17;20.40;35.80
23377;DHT22;14353;46.070;13.222;2024-02-04T01:55:44;20.50;35.90
23377;DHT22;14353;46.070;13.222;2024-02-04T01:58:10;20.50;35.90
23377;DHT22;14353;46.070;13.222;2024-02-04T02:00:36;20.40;35.80
23377;DHT22;14353;46.070;13.222;2024-02-04T02:03:05;20.40;35.80
23377;DHT22;14353;46.070;13.222;2024-02-04T02:05:32;20.40;35.90
23377;DHT22;14353;46.070;13.222;2024-02-04T02:07:57;20.40;35.90
23377;DHT22;14353;46.070;13.222;2024-02-04T02:10:23;20.40;36.00
23377;DHT22;14353;46.070;13.222;2024-02-04T02:13:14;20.40;35.90
23377;DHT22;14353;46.070;13.222;2024-02-04T02:15:45;20.40;35.90
23377;DHT22;14353;46.070;13.222;2024-02-04T02:18:23;20.40;35.90
23377;DHT22;14353;46.070;13.222;2024-02-04T02:24:04;20.40;35.90
23377;DHT22;14353;46.070;13.222;2024-02-04T02:26:35;20.40;35.90
23377;DHT22;14353;46.070;13.222;2024-02-04T02:29:07;20.30;35.90
23377;DHT22;14353;46.070;13.222;2024-02-04T02:31:39;20.30;35.90
23377;DHT22;14353;46.070;13.222;2024-02-04T02:34:05;20.30;35.90
23377;DHT22;14353;46.070;13.222;2024-02-04T02:36:36;20.30;35.90
23377;DHT22;14353;46.070;13.222;2024-02-04T02:39:09;20.30;36.00
23377;DHT22;14353;46.070;13.222;2024-02-04T02:41:36;20.40;36.00
23377;DHT22;14353;46.070;13.222;2024-02-04T02:44:05;20.30;36.00
23377;DHT22;14353;46.070;13.222;2024-02-04T02:46:31;20.30;36.00
23377;DHT22;14353;46.070;13.222;2024-02-04T02:48:57;20.30;36.00
23377;DHT22;14353;46.070;13.222;2024-02-04T02:51:23;20.30;36.00
23377;DHT22;14353;46.070;13.222;2024-02-04T02:53:49;20.30;36.00
23377;DHT22;14353;46.070;13.222;2024-02-04T02:56:15;20.30;36.00
23377;DHT22;14353;46.070;13.222;2024-02-04T02:58:40;20.30;36.00
23377;DHT22;14353;46.070;13.222;2024-02-04T03:01:06;20.20;36.00
23377;DHT22;14353;46.070;13.222;2024-02-04T03:03:32;20.20;36.00
23377;DHT22;14353;46.070;13.222;2024-02-04T03:05:57;20.20;36.00
23377;DHT22;14353;46.070;13.222;2024-02-04T03:08:23;20.20;36.00
23377;DHT22;14353;46.070;13.222;2024-02-04T03:10:49;20.20;36.00
23377;DHT22;14353;46.070;13.222;2024-02-04T03:13:14;20.20;36.00
23377;DHT22;14353;46.070;13.222;2024-02-04T03:15:40;20.20;36.00
23377;DHT22;14353;46.070;13.222;2024-02-04T03:18:08;20.20;36.00
23377;DHT22;14353;46.070;13.222;2024-02-04T03:20:33;20.20;36.00
23377;DHT22;14353;46.070;13.222;2024-02-04T03:22:59;20.20;36.10
23377;DHT22;14353;46.070;13.222;2024-02-04T03:25:25;20.20;36.10
23377;DHT22;14353;46.070;13.222;2024-02-04T03:27:52;20.20;36.10
23377;DHT22;14353;46.070;13.222;2024-02-04T03:30:21;20.10;36.00
23377;DHT22;14353;46.070;13.222;2024-02-04T03:32:47;20.10;36.10
23377;DHT22;14353;46.070;13.222;2024-02-04T03:35:13;20.10;36.10
23377;DHT22;14353;46.070;13.222;2024-02-04T03:37:38;20.10;36.10
23377;DHT22;14353;46.070;13.222;2024-02-04T03:40:04;20.10;36.10
23377;DHT22;14353;46.070;13.222;2024-02-04T03:42:30;20.10;36.10
23377;DHT22;14353;46.070;13.222;2024-02-04T03:44:56;20.10;36.20
23377;DHT22;14353;46.070;13.222;2024-02-04T03:47:22;20.10;36.20
23377;DHT22;14353;46.070;13.222;2024-02-04T03:49:47;20.10;36.20
23377;DHT22;14353;46.070;13.222;2024-02-04T03:52:13;20.10;36.10
23377;DHT22;14353;46.070;13.222;2024-02-04T03:54:39;20.10;36.10
23377;DHT22;14353;46.070;13.222;2024-02-04T03:57:04;20.10;36.20
23377;DHT22;14353;46.070;13.222;2024-02-04T03:59:30;20.10;36.20
23377;DHT22;14353;46.070;13.222;2024-02-04T04:01:56;20.10;36.20
23377;DHT22;14353;46.070;13.222;2024-02-04T04:04:23;20.00;36.10
23377;DHT22;14353;46.070;13.222;2024-02-04T04:06:49;20.00;36.20
23377;DHT22;14353;46.070;13.222;2024-02-04T04:09:15;20.00;36.10
23377;DHT22;14353;46.070;13.222;2024-02-04T04:11:40;20.00;36.20
23377;DHT22;14353;46.070;13.222;2024-02-04T04:14:06;20.00;36.20
23377;DHT22;14353;46.070;13.222;2024-02-04T04:16:32;20.00;36.20
23377;DHT22;14353;46.070;13.222;2024-02-04T04:18:57;20.00;36.20
23377;DHT22;14353;46.070;13.222;2024-02-04T04:21:26;20.00;36.20
23377;DHT22;14353;46.070;13.222;2024-02-04T04:23:52;20.00;36.20
23377;DHT22;14353;46.070;13.222;2024-02-04T04:26:17;20.00;36.20
23377;DHT22;14353;46.070;13.222;2024-02-04T04:28:43;20.00;36.20
23377;DHT22;14353;46.070;13.222;2024-02-04T04:31:09;20.00;36.20
23377;DHT22;14353;46.070;13.222;2024-02-04T04:33:36;20.00;36.20
23377;DHT22;14353;46.070;13.222;2024-02-04T04:36:01;20.00;36.20
23377;DHT22;14353;46.070;13.222;2024-02-04T04:38:27;19.90;36.20
23377;DHT22;14353;46.070;13.222;2024-02-04T04:40:53;19.90;36.20
23377;DHT22;14353;46.070;13.222;2024-02-04T04:43:19;19.90;36.20
23377;DHT22;14353;46.070;13.222;2024-02-04T04:45:45;19.90;36.20
23377;DHT22;14353;46.070;13.222;2024-02-04T04:48:10;19.90;36.20
23377;DHT22;14353;46.070;13.222;2024-02-04T04:50:36;19.90;36.20
23377;DHT22;14353;46.070;13.222;2024-02-04T04:53:02;19.90;36.20
23377;DHT22;14353;46.070;13.222;2024-02-04T04:55:28;19.90;36.20
23377;DHT22;14353;46.070;13.222;2024-02-04T04:57:53;19.90;36.20
23377;DHT22;14353;46.070;13.222;2024-02-04T05:00:19;19.90;36.20
23377;DHT22;14353;46.070;13.222;2024-02-04T05:02:45;19.90;36.20
23377;DHT22;14353;46.070;13.222;2024-02-04T05:05:11;19.90;36.20
23377;DHT22;14353;46.070;13.222;2024-02-04T05:07:37;19.90;36.20
23377;DHT22;14353;46.070;13.222;2024-02-04T05:10:03;19.90;36.30
23377;DHT22;14353;46.070;13.222;2024-02-04T05:12:30;19.90;36.20
23377;DHT22;14353;46.070;13.222;2024-02-04T05:14:55;19.80;36.20
23377;DHT22;14353;46.070;13.222;2024-02-04T05:17:21;19.80;36.20
23377;DHT22;14353;46.070;13.222;2024-02-04T05:19:47;19.80;36.90
23377;DHT22;14353;46.070;13.222;2024-02-04T05:22:13;19.80;36.20
23377;DHT22;14353;46.070;13.222;2024-02-04T05:24:38;19.80;36.20
23377;DHT22;14353;46.070;13.222;2024-02-04T05:27:04;19.80;36.30
23377;DHT22;14353;46.070;13.222;2024-02-04T05:29:31;19.70;36.20
23377;DHT22;14353;46.070;13.222;2024-02-04T05:31:56;19.80;36.30
23377;DHT22;14353;46.070;13.222;2024-02-04T05:34:22;19.80;36.30
23377;DHT22;14353;46.070;13.222;2024-02-04T05:36:48;19.80;36.30
23377;DHT22;14353;46.070;13.222;2024-02-04T05:39:15;19.80;36.30
23377;DHT22;14353;46.070;13.222;2024-02-04T05:41:41;19.80;36.30
23377;DHT22;14353;46.070;13.222;2024-02-04T05:44:07;19.70;36.20
23377;DHT22;14353;46.070;13.222;2024-02-04T05:46:36;19.70;36.20
23377;DHT22;14353;46.070;13.222;2024-02-04T05:49:02;19.70;36.30
23377;DHT22;14353;46.070;13.222;2024-02-04T05:51:28;19.70;36.30
23377;DHT22;14353;46.070;13.222;2024-02-04T05:53:54;19.70;36.30
23377;DHT22;14353;46.070;13.222;2024-02-04T05:56:21;19.70;36.30
23377;DHT22;14353;46.070;13.222;2024-02-04T05:58:47;19.70;36.30
23377;DHT22;14353;46.070;13.222;2024-02-04T06:01:12;19.70;36.30
23377;DHT22;14353;46.070;13.222;2024-02-04T06:03:38;19.70;36.30
23377;DHT22;14353;46.070;13.222;2024-02-04T06:06:04;19.70;36.30
23377;DHT22;14353;46.070;13.222;2024-02-04T06:08:30;19.70;36.40
23377;DHT22;14353;46.070;13.222;2024-02-04T06:10:55;19.70;36.30
23377;DHT22;14353;46.070;13.222;2024-02-04T06:13:21;19.70;36.30
23377;DHT22;14353;46.070;13.222;2024-02-04T06:15:47;19.60;36.30
23377;DHT22;14353;46.070;13.222;2024-02-04T06:18:12;19.70;36.40
23377;DHT22;14353;46.070;13.222;2024-02-04T06:20:38;19.60;36.40
23377;DHT22;14353;46.070;13.222;2024-02-04T06:23:04;19.60;36.30
23377;DHT22;14353;46.070;13.222;2024-02-04T06:25:29;19.60;36.30
23377;DHT22;14353;46.070;13.222;2024-02-04T06:27:55;19.60;36.40
23377;DHT22;14353;46.070;13.222;2024-02-04T06:30:21;19.60;36.30
23377;DHT22;14353;46.070;13.222;2024-02-04T06:32:48;19.60;36.30
23377;DHT22;14353;46.070;13.222;2024-02-04T06:35:15;19.60;36.30
23377;DHT22;14353;46.070;13.222;2024-02-04T06:37:41;19.60;36.30
23377;DHT22;14353;46.070;13.222;2024-02-04T06:40:09;19.60;36.30
23377;DHT22;14353;46.070;13.222;2024-02-04T06:42:35;19.60;36.30
23377;DHT22;14353;46.070;13.222;2024-02-04T06:45:01;19.60;36.30
23377;DHT22;14353;46.070;13.222;2024-02-04T06:47:27;19.60;36.20
23377;DHT22;14353;46.070;13.222;2024-02-04T06:49:52;19.60;36.30
23377;DHT22;14353;46.070;13.222;2024-02-04T06:52:18;19.60;36.20
23377;DHT22;14353;46.070;13.222;2024-02-04T06:54:44;19.60;36.20
23377;DHT22;14353;46.070;13.222;2024-02-04T06:57:10;19.60;36.20
23377;DHT22;14353;46.070;13.222;2024-02-04T06:59:36;19.60;36.10
23377;DHT22;14353;46.070;13.222;2024-02-04T07:02:02;19.60;36.10
23377;DHT22;14353;46.070;13.222;2024-02-04T07:04:27;19.60;36.10
23377;DHT22;14353;46.070;13.222;2024-02-04T07:06:53;19.60;36.10
23377;DHT22;14353;46.070;13.222;2024-02-04T07:09:19;19.70;36.10
23377;DHT22;14353;46.070;13.222;2024-02-04T07:11:44;19.70;36.10
23377;DHT22;14353;46.070;13.222;2024-02-04T07:14:11;19.70;36.10
23377;DHT22;14353;46.070;13.222;2024-02-04T07:16:36;19.70;36.00
23377;DHT22;14353;46.070;13.222;2024-02-04T07:19:02;19.70;35.90
23377;DHT22;14353;46.070;13.222;2024-02-04T07:21:31;19.70;36.00
23377;DHT22;14353;46.070;13.222;2024-02-04T07:23:56;19.70;35.90
23377;DHT22;14353;46.070;13.222;2024-02-04T07:26:22;19.70;35.90
23377;DHT22;14353;46.070;13.222;2024-02-04T07:28:48;19.70;35.90
23377;DHT22;14353;46.070;13.222;2024-02-04T07:31:13;19.70;35.90
23377;DHT22;14353;46.070;13.222;2024-02-04T07:33:39;19.70;35.80
23377;DHT22;14353;46.070;13.222;2024-02-04T07:36:05;19.70;35.90
23377;DHT22;14353;46.070;13.222;2024-02-04T07:38:31;19.70;35.80
23377;DHT22;14353;46.070;13.222;2024-02-04T07:40:56;19.70;35.80
23377;DHT22;14353;46.070;13.222;2024-02-04T07:43:25;19.70;35.80
23377;DHT22;14353;46.070;13.222;2024-02-04T07:45:50;19.70;35.80
23377;DHT22;14353;46.070;13.222;2024-02-04T07:48:16;19.70;35.80
23377;DHT22;14353;46.070;13.222;2024-02-04T07:50:42;19.70;35.70
23377;DHT22;14353;46.070;13.222;2024-02-04T07:53:08;19.70;35.70
23377;DHT22;14353;46.070;13.222;2024-02-04T07:55:34;19.80;35.70
23377;DHT22;14353;46.070;13.222;2024-02-04T07:57:59;19.70;35.70
23377;DHT22;14353;46.070;13.222;2024-02-04T08:00:25;19.70;35.60
23377;DHT22;14353;46.070;13.222;2024-02-04T08:02:51;19.80;35.60
23377;DHT22;14353;46.070;13.222;2024-02-04T08:05:17;19.80;35.60
23377;DHT22;14353;46.070;13.222;2024-02-04T08:07:42;19.80;35.50
23377;DHT22;14353;46.070;13.222;2024-02-04T08:10:08;19.80;35.40
23377;DHT22;14353;46.070;13.222;2024-02-04T08:12:34;19.90;35.40
23377;DHT22;14353;46.070;13.222;2024-02-04T08:15:00;19.90;35.40
23377;DHT22;14353;46.070;13.222;2024-02-04T08:17:26;19.90;35.30
23377;DHT22;14353;46.070;13.222;2024-02-04T08:19:54;20.00;35.20
23377;DHT22;14353;46.070;13.222;2024-02-04T08:22:20;20.00;35.10
23377;DHT22;14353;46.070;13.222;2024-02-04T08:24:45;20.00;35.00
23377;DHT22;14353;46.070;13.222;2024-02-04T08:27:12;20.10;34.90
23377;DHT22;14353;46.070;13.222;2024-02-04T08:29:40;20.20;34.90
23377;DHT22;14353;46.070;13.222;2024-02-04T08:32:06;20.20;34.80
23377;DHT22;14353;46.070;13.222;2024-02-04T08:34:32;20.30;34.70
23377;DHT22;14353;46.070;13.222;2024-02-04T08:36:58;20.30;34.60
23377;DHT22;14353;46.070;13.222;2024-02-04T08:39:23;20.40;34.50
23377;DHT22;14353;46.070;13.222;2024-02-04T08:41:51;20.40;34.30
23377;DHT22;14353;46.070;13.222;2024-02-04T08:44:17;20.50;34.20
23377;DHT22;14353;46.070;13.222;2024-02-04T08:46:42;20.60;34.10
23377;DHT22;14353;46.070;13.222;2024-02-04T08:49:08;20.60;34.30
23377;DHT22;14353;46.070;13.222;2024-02-04T08:51:33;20.70;33.80
23377;DHT22;14353;46.070;13.222;2024-02-04T08:53:59;20.70;33.80
23377;DHT22;14353;46.070;13.222;2024-02-04T08:56:25;20.80;33.70
23377;DHT22;14353;46.070;13.222;2024-02-04T08:58:51;20.90;33.60
23377;DHT22;14353;46.070;13.222;2024-02-04T09:01:17;20.90;33.40
23377;DHT22;14353;46.070;13.222;2024-02-04T09:03:43;21.00;33.30
23377;DHT22;14353;46.070;13.222;2024-02-04T09:06:09;21.00;33.20
23377;DHT22;14353;46.070;13.222;2024-02-04T09:08:35;21.10;33.20
23377;DHT22;14353;46.070;13.222;2024-02-04T09:11:00;21.10;33.10
23377;DHT22;14353;46.070;13.222;2024-02-04T09:13:26;21.20;33.00
23377;DHT22;14353;46.070;13.222;2024-02-04T09:15:52;21.30;32.90
23377;DHT22;14353;46.070;13.222;2024-02-04T09:18:19;21.30;32.70
23377;DHT22;14353;46.070;13.222;2024-02-04T09:20:45;21.40;32.50
23377;DHT22;14353;46.070;13.222;2024-02-04T09:23:11;21.50;32.30
23377;DHT22;14353;46.070;13.222;2024-02-04T09:25:36;21.70;31.90
23377;DHT22;14353;46.070;13.222;2024-02-04T09:28:02;22.20;31.10
23377;DHT22;14353;46.070;13.222;2024-02-04T09:30:28;22.70;30.00
23377;DHT22;14353;46.070;13.222;2024-02-04T09:32:54;23.50;29.10
23377;DHT22;14353;46.070;13.222;2024-02-04T09:35:19;24.30;28.10
23377;DHT22;14353;46.070;13.222;2024-02-04T09:37:45;25.00;27.20
23377;DHT22;14353;46.070;13.222;2024-02-04T09:40:11;25.60;26.60
23377;DHT22;14353;46.070;13.222;2024-02-04T09:42:37;26.10;26.00
23377;DHT22;14353;46.070;13.222;2024-02-04T09:45:03;26.50;25.60
23377;DHT22;14353;46.070;13.222;2024-02-04T09:47:32;26.80;25.20
23377;DHT22;14353;46.070;13.222;2024-02-04T09:50:03;27.10;25.00
23377;DHT22;14353;46.070;13.222;2024-02-04T09:52:33;27.40;24.50
23377;DHT22;14353;46.070;13.222;2024-02-04T09:55:03;27.60;24.30
23377;DHT22;14353;46.070;13.222;2024-02-04T09:57:32;27.80;24.20
23377;DHT22;14353;46.070;13.222;2024-02-04T09:59:59;28.00;23.90
23377;DHT22;14353;46.070;13.222;2024-02-04T10:02:24;28.20;23.80
23377;DHT22;14353;46.070;13.222;2024-02-04T10:04:51;28.50;23.60
23377;DHT22;14353;46.070;13.222;2024-02-04T10:07:17;28.70;23.40
23377;DHT22;14353;46.070;13.222;2024-02-04T10:09:44;28.80;23.10
23377;DHT22;14353;46.070;13.222;2024-02-04T10:12:10;29.00;23.10
23377;DHT22;14353;46.070;13.222;2024-02-04T10:14:36;28.90;23.00
23377;DHT22;14353;46.070;13.222;2024-02-04T10:17:01;28.70;23.20
23377;DHT22;14353;46.070;13.222;2024-02-04T10:19:27;28.50;23.70
23377;DHT22;14353;46.070;13.222;2024-02-04T10:22:03;28.60;23.80
23377;DHT22;14353;46.070;13.222;2024-02-04T10:24:30;28.70;23.20
23377;DHT22;14353;46.070;13.222;2024-02-04T10:26:56;28.80;23.10
23377;DHT22;14353;46.070;13.222;2024-02-04T10:29:23;29.10;22.90
23377;DHT22;14353;46.070;13.222;2024-02-04T10:31:53;29.30;22.60
23377;DHT22;14353;46.070;13.222;2024-02-04T10:34:19;29.30;22.60
23377;DHT22;14353;46.070;13.222;2024-02-04T10:36:45;29.50;23.30
23377;DHT22;14353;46.070;13.222;2024-02-04T10:39:11;29.30;22.80
23377;DHT22;14353;46.070;13.222;2024-02-04T10:41:44;29.00;23.10
23377;DHT22;14353;46.070;13.222;2024-02-04T10:44:16;28.50;23.50
23377;DHT22;14353;46.070;13.222;2024-02-04T10:46:46;28.00;23.90
23377;DHT22;14353;46.070;13.222;2024-02-04T10:49:14;27.60;24.30
23377;DHT22;14353;46.070;13.222;2024-02-04T10:51:41;27.50;24.40
23377;DHT22;14353;46.070;13.222;2024-02-04T10:54:08;27.90;24.10
23377;DHT22;14353;46.070;13.222;2024-02-04T10:56:41;28.50;23.70
23377;DHT22;14353;46.070;13.222;2024-02-04T10:59:07;28.90;23.20
23377;DHT22;14353;46.070;13.222;2024-02-04T11:01:35;29.40;22.80
23377;DHT22;14353;46.070;13.222;2024-02-04T11:04:02;29.90;22.50
23377;DHT22;14353;46.070;13.222;2024-02-04T11:06:29;30.20;22.20
23377;DHT22;14353;46.070;13.222;2024-02-04T11:08:57;30.30;21.90
23377;DHT22;14353;46.070;13.222;2024-02-04T11:11:25;30.50;21.80
23377;DHT22;14353;46.070;13.222;2024-02-04T11:13:55;30.70;21.70
23377;DHT22;14353;46.070;13.222;2024-02-04T11:22:00;31.00;21.40
23377;DHT22;14353;46.070;13.222;2024-02-04T11:26:54;31.10;21.40
23377;DHT22;14353;46.070;13.222;2024-02-04T11:29:20;31.10;21.40
23377;DHT22;14353;46.070;13.222;2024-02-04T11:31:46;31.00;21.40
23377;DHT22;14353;46.070;13.222;2024-02-04T11:34:12;31.00;21.40
23377;DHT22;14353;46.070;13.222;2024-02-04T11:36:39;31.00;21.30
23377;DHT22;14353;46.070;13.222;2024-02-04T11:39:14;31.00;21.40
23377;DHT22;14353;46.070;13.222;2024-02-04T11:41:47;31.00;21.40
23377;DHT22;14353;46.070;13.222;2024-02-04T11:44:20;31.00;21.40
23377;DHT22;14353;46.070;13.222;2024-02-04T11:46:46;31.20;21.40
23377;DHT22;14353;46.070;13.222;2024-02-04T11:49:19;31.00;21.50
23377;DHT22;14353;46.070;13.222;2024-02-04T11:51:50;31.00;21.50
23377;DHT22;14353;46.070;13.222;2024-02-04T11:54:17;31.10;21.40
23377;DHT22;14353;46.070;13.222;2024-02-04T11:56:45;31.10;21.50
23377;DHT22;14353;46.070;13.222;2024-02-04T11:59:12;31.00;21.50
23377;DHT22;14353;46.070;13.222;2024-02-04T12:01:41;31.10;21.50
23377;DHT22;14353;46.070;13.222;2024-02-04T12:04:14;31.10;21.60
23377;DHT22;14353;46.070;13.222;2024-02-04T12:06:41;31.00;21.60
23377;DHT22;14353;46.070;13.222;2024-02-04T12:09:10;30.90;21.80
23377;DHT22;14353;46.070;13.222;2024-02-04T12:11:37;30.70;21.90
23377;DHT22;14353;46.070;13.222;2024-02-04T12:14:07;30.60;22.00
23377;DHT22;14353;46.070;13.222;2024-02-04T12:16:33;30.40;22.20
23377;DHT22;14353;46.070;13.222;2024-02-04T12:19:04;30.20;22.30
23377;DHT22;14353;46.070;13.222;2024-02-04T12:21:30;30.00;22.50
23377;DHT22;14353;46.070;13.222;2024-02-04T12:23:55;29.90;22.70
23377;DHT22;14353;46.070;13.222;2024-02-04T12:26:22;29.70;22.80
23377;DHT22;14353;46.070;13.222;2024-02-04T12:28:49;29.40;23.10
23377;DHT22;14353;46.070;13.222;2024-02-04T12:31:19;29.20;23.30
23377;DHT22;14353;46.070;13.222;2024-02-04T12:33:55;29.10;23.50
23377;DHT22;14353;46.070;13.222;2024-02-04T12:36:26;29.00;23.60
23377;DHT22;14353;46.070;13.222;2024-02-04T12:39:00;29.00;23.60
23377;DHT22;14353;46.070;13.222;2024-02-04T12:41:27;29.00;23.60
23377;DHT22;14353;46.070;13.222;2024-02-04T12:43:58;29.00;23.60
23377;DHT22;14353;46.070;13.222;2024-02-04T12:46:24;29.10;23.60
23377;DHT22;14353;46.070;13.222;2024-02-04T12:48:54;29.00;23.50
23377;DHT22;14353;46.070;13.222;2024-02-04T12:51:30;29.10;24.10
23377;DHT22;14353;46.070;13.222;2024-02-04T12:54:06;29.10;23.50
23377;DHT22;14353;46.070;13.222;2024-02-04T12:56:48;29.10;23.60
23377;DHT22;14353;46.070;13.222;2024-02-04T12:59:30;29.10;23.60
23377;DHT22;14353;46.070;13.222;2024-02-04T13:02:01;29.00;23.60
23377;DHT22;14353;46.070;13.222;2024-02-04T13:04:33;29.10;23.70
23377;DHT22;14353;46.070;13.222;2024-02-04T13:06:59;29.10;23.80
23377;DHT22;14353;46.070;13.222;2024-02-04T13:09:25;29.00;23.70
23377;DHT22;14353;46.070;13.222;2024-02-04T13:11:51;29.00;23.80
23377;DHT22;14353;46.070;13.222;2024-02-04T13:14:17;28.90;23.90
23377;DHT22;14353;46.070;13.222;2024-02-04T13:16:42;28.80;24.00
23377;DHT22;14353;46.070;13.222;2024-02-04T13:19:08;28.70;24.10
23377;DHT22;14353;46.070;13.222;2024-02-04T13:21:34;28.60;24.20
23377;DHT22;14353;46.070;13.222;2024-02-04T13:24:00;28.50;24.30
23377;DHT22;14353;46.070;13.222;2024-02-04T13:26:25;28.40;24.40
23377;DHT22;14353;46.070;13.222;2024-02-04T13:28:51;28.30;24.50
23377;DHT22;14353;46.070;13.222;2024-02-04T13:31:17;28.20;24.70
23377;DHT22;14353;46.070;13.222;2024-02-04T13:33:43;28.10;24.70
23377;DHT22;14353;46.070;13.222;2024-02-04T13:36:09;28.10;24.80
23377;DHT22;14353;46.070;13.222;2024-02-04T13:38:36;28.00;24.80
23377;DHT22;14353;46.070;13.222;2024-02-04T13:41:02;27.90;25.00
23377;DHT22;14353;46.070;13.222;2024-02-04T13:43:31;27.90;25.10
23377;DHT22;14353;46.070;13.222;2024-02-04T13:45:59;27.80;25.20
23377;DHT22;14353;46.070;13.222;2024-02-04T13:48:25;27.70;25.30
23377;DHT22;14353;46.070;13.222;2024-02-04T13:50:51;27.60;25.40
23377;DHT22;14353;46.070;13.222;2024-02-04T13:53:17;27.50;25.50
23377;DHT22;14353;46.070;13.222;2024-02-04T13:55:43;27.40;25.60
23377;DHT22;14353;46.070;13.222;2024-02-04T13:58:10;27.30;25.80
23377;DHT22;14353;46.070;13.222;2024-02-04T14:00:36;27.20;25.90
23377;DHT22;14353;46.070;13.222;2024-02-04T14:03:03;27.10;26.10
23377;DHT22;14353;46.070;13.222;2024-02-04T14:05:28;26.90;26.20
23377;DHT22;14353;46.070;13.222;2024-02-04T14:07:54;26.70;26.30
23377;DHT22;14353;46.070;13.222;2024-02-04T14:10:20;26.50;26.60
23377;DHT22;14353;46.070;13.222;2024-02-04T14:12:46;26.40;26.90
23377;DHT22;14353;46.070;13.222;2024-02-04T14:15:11;26.20;27.00
23377;DHT22;14353;46.070;13.222;2024-02-04T14:17:38;26.00;27.30
23377;DHT22;14353;46.070;13.222;2024-02-04T14:20:05;25.80;27.40
23377;DHT22;14353;46.070;13.222;2024-02-04T14:22:31;25.70;27.70
23377;DHT22;14353;46.070;13.222;2024-02-04T14:24:57;25.50;27.80
23377;DHT22;14353;46.070;13.222;2024-02-04T14:27:23;25.40;28.00
23377;DHT22;14353;46.070;13.222;2024-02-04T14:29:49;25.30;28.20
23377;DHT22;14353;46.070;13.222;2024-02-04T14:32:15;25.20;28.30
23377;DHT22;14353;46.070;13.222;2024-02-04T14:34:41;25.10;28.40
23377;DHT22;14353;46.070;13.222;2024-02-04T14:37:07;25.00;28.50
23377;DHT22;14353;46.070;13.222;2024-02-04T14:39:33;25.00;28.60
23377;DHT22;14353;46.070;13.222;2024-02-04T14:41:59;24.90;28.70
23377;DHT22;14353;46.070;13.222;2024-02-04T14:44:28;24.80;28.80
23377;DHT22;14353;46.070;13.222;2024-02-04T14:46:54;24.80;28.90
23377;DHT22;14353;46.070;13.222;2024-02-04T14:49:20;24.70;29.00
23377;DHT22;14353;46.070;13.222;2024-02-04T14:51:45;24.70;29.00
23377;DHT22;14353;46.070;13.222;2024-02-04T14:54:11;24.60;29.20
23377;DHT22;14353;46.070;13.222;2024-02-04T14:56:40;24.50;29.30
23377;DHT22;14353;46.070;13.222;2024-02-04T14:59:08;24.50;29.30
23377;DHT22;14353;46.070;13.222;2024-02-04T15:01:34;24.40;29.40
23377;DHT22;14353;46.070;13.222;2024-02-04T15:04:00;24.30;29.50
23377;DHT22;14353;46.070;13.222;2024-02-04T15:06:26;24.30;29.60
23377;DHT22;14353;46.070;13.222;2024-02-04T15:08:52;24.20;29.70
23377;DHT22;14353;46.070;13.222;2024-02-04T15:11:18;24.10;29.70
23377;DHT22;14353;46.070;13.222;2024-02-04T15:13:45;24.10;29.90
23377;DHT22;14353;46.070;13.222;2024-02-04T15:16:11;24.00;29.90
23377;DHT22;14353;46.070;13.222;2024-02-04T15:18:38;23.90;29.90
23377;DHT22;14353;46.070;13.222;2024-02-04T15:21:04;23.90;30.00
23377;DHT22;14353;46.070;13.222;2024-02-04T15:23:30;23.80;30.00